Time;durP1;ratioP1;P1;durP2;ratioP2;P2;SDS_P1;SDS_P2;PMS_P1;PMS_P2;Temp;Humidity;BMP_temperature;BMP_pressure;BME280_temperature;BME280_humidity;BME280_pressure;Samples;Min_cycle;Max_cycle;Signal;HPM_P1;HPM_P2
2023/06/15 00:00:49;;;;;;;3.60;2.40;;;18.10;71.00;;;;;;5061996;28;20044;-65
2023/06/15 00:03:16;;;;;;;3.85;2.58;;;18.10;71.20;;;;;;5061447;28;20055;-65
2023/06/15 00:05:42;;;;;;;3.40;2.28;;;18.00;71.10;;;;;;5060576;28;20028;-65
2023/06/15 00:08:08;;;;;;;2.88;2.30;;;18.00;71.50;;;;;;5063583;28;20031;-64
2023/06/15 00:10:34;;;;;;;3.67;2.80;;;17.90;71.20;;;;;;5060300;28;20032;-64
2023/06/15 00:13:00;;;;;;;3.95;2.35;;;17.90;71.80;;;;;;5063384;28;20097;-64
2023/06/15 00:15:27;;;;;;;3.28;2.40;;;17.80;72.20;;;;;;5050456;28;20057;-65
2023/06/15 00:17:54;;;;;;;4.72;2.42;;;17.80;72.20;;;;;;5066874;28;20032;-64
2023/06/15 00:20:22;;;;;;;4.00;2.58;;;17.70;72.20;;;;;;5065950;28;20102;-65
2023/06/15 00:22:49;;;;;;;3.28;2.28;;;17.60;72.40;;;;;;5063427;28;20043;-64
2023/06/15 00:25:15;;;;;;;3.88;2.33;;;17.50;72.60;;;;;;5062317;28;20035;-64
2023/06/15 00:27:41;;;;;;;4.70;2.72;;;17.50;73.10;;;;;;5062913;28;20051;-66
2023/06/15 00:30:10;;;;;;;4.75;2.90;;;17.40;73.50;;;;;;5062819;28;20028;-64
2023/06/15 00:32:37;;;;;;;5.13;2.85;;;17.30;73.50;;;;;;5054715;28;20034;-65
2023/06/15 00:35:03;;;;;;;5.25;2.17;;;17.30;74.00;;;;;;5061348;28;20127;-65
2023/06/15 00:37:29;;;;;;;4.90;2.85;;;17.20;74.10;;;;;;5060980;28;20071;-67
2023/06/15 00:39:55;;;;;;;6.03;2.95;;;17.10;74.40;;;;;;5061639;28;20094;-65
2023/06/15 00:42:21;;;;;;;4.50;2.70;;;17.00;74.70;;;;;;5060143;28;20036;-67
2023/06/15 00:44:46;;;;;;;3.00;2.28;;;17.00;75.10;;;;;;5064725;28;20036;-67
2023/06/15 00:47:13;;;;;;;5.05;2.53;;;16.90;75.40;;;;;;5063244;28;20051;-67
2023/06/15 00:49:39;;;;;;;6.20;2.72;;;16.90;75.70;;;;;;5062820;28;20028;-67
2023/06/15 00:52:06;;;;;;;3.80;2.70;;;16.80;75.80;;;;;;5060223;28;20024;-67
2023/06/15 00:54:33;;;;;;;4.07;2.50;;;16.70;75.90;;;;;;5058912;28;20031;-68
2023/06/15 00:57:00;;;;;;;4.85;2.70;;;16.60;76.20;;;;;;5057640;28;20051;-65
2023/06/15 00:59:28;;;;;;;3.83;2.50;;;16.60;76.40;;;;;;5061236;28;20830;-65
2023/06/15 01:01:56;;;;;;;2.95;2.50;;;16.50;76.70;;;;;;5057443;28;20082;-66
2023/06/15 01:04:26;;;;;;;6.95;2.28;;;16.50;77.00;;;;;;5054518;28;20032;-65
2023/06/15 01:06:57;;;;;;;3.30;2.63;;;16.40;77.40;;;;;;5060893;28;20040;-65
2023/06/15 01:09:26;;;;;;;3.38;2.20;;;16.40;77.80;;;;;;5060932;28;20504;-66
2023/06/15 01:11:55;;;;;;;4.28;2.80;;;16.30;78.00;;;;;;5061554;28;20113;-67
2023/06/15 01:14:24;;;;;;;6.25;2.47;;;16.30;78.20;;;;;;5059080;28;20036;-67
2023/06/15 01:16:53;;;;;;;4.97;2.40;;;16.20;78.40;;;;;;5060668;28;20033;-67
2023/06/15 01:19:57;;;;;;;4.72;2.65;;;16.10;78.60;;;;;;5061522;28;20028;-66
2023/06/15 01:22:49;;;;;;;3.53;2.63;;;16.10;79.00;;;;;;5060606;28;20047;-67
2023/06/15 01:25:33;;;;;;;5.53;2.72;;;16.00;79.40;;;;;;5061955;28;20590;-66
2023/06/15 01:28:05;;;;;;;3.95;2.58;;;16.00;79.80;;;;;;5062339;28;20035;-66
2023/06/15 01:30:42;;;;;;;3.80;2.55;;;15.90;80.30;;;;;;5062357;28;20023;-67
2023/06/15 01:33:08;;;;;;;5.63;2.90;;;15.80;80.40;;;;;;5062190;28;20036;-66
2023/06/15 01:35:35;;;;;;;5.38;2.72;;;15.90;80.60;;;;;;5058806;28;20054;-66
2023/06/15 01:38:01;;;;;;;6.00;2.95;;;15.80;81.20;;;;;;5061799;28;20033;-66
2023/06/15 01:40:28;;;;;;;4.90;3.13;;;15.70;81.60;;;;;;5062631;28;20028;-67
2023/06/15 01:42:57;;;;;;;5.00;2.90;;;15.70;82.00;;;;;;5059974;28;20132;-67
2023/06/15 01:45:25;;;;;;;3.45;2.38;;;15.70;82.30;;;;;;5059865;28;20123;-65
2023/06/15 01:47:51;;;;;;;5.15;2.65;;;15.60;82.50;;;;;;5057635;28;20024;-67
2023/06/15 01:50:18;;;;;;;4.90;3.17;;;15.60;82.90;;;;;;5058776;28;20051;-66
2023/06/15 01:52:44;;;;;;;4.47;2.78;;;15.60;83.20;;;;;;5061972;28;20032;-66
2023/06/15 01:55:10;;;;;;;5.72;3.20;;;15.60;83.50;;;;;;5057351;28;20028;-67
2023/06/15 01:57:38;;;;;;;4.50;2.80;;;15.50;83.80;;;;;;5061491;28;20031;-67
2023/06/15 02:00:05;;;;;;;4.45;2.88;;;15.50;84.40;;;;;;5060136;28;20024;-67
2023/06/15 02:02:39;;;;;;;7.15;3.22;;;15.40;84.60;;;;;;5060311;28;20162;-67
2023/06/15 02:05:06;;;;;;;4.40;2.92;;;15.40;84.90;;;;;;5060059;28;20032;-67
2023/06/15 02:07:32;;;;;;;5.47;2.47;;;15.40;85.10;;;;;;5058771;28;20035;-67
2023/06/15 02:09:58;;;;;;;4.63;3.28;;;15.30;85.40;;;;;;5060936;28;20037;-67
2023/06/15 02:12:24;;;;;;;3.78;2.85;;;15.30;85.80;;;;;;5059911;28;20037;-66
2023/06/15 02:14:51;;;;;;;4.15;3.13;;;15.20;86.20;;;;;;5055877;28;20742;-66
2023/06/15 02:17:18;;;;;;;5.22;2.70;;;15.20;86.70;;;;;;5059721;28;20545;-66
2023/06/15 02:19:47;;;;;;;7.95;2.70;;;15.20;87.10;;;;;;5058769;28;20560;-67
2023/06/15 02:22:15;;;;;;;6.80;2.92;;;15.20;87.60;;;;;;5059526;28;20450;-66
2023/06/15 02:24:42;;;;;;;3.60;2.67;;;15.20;87.90;;;;;;5059802;28;20033;-67
2023/06/15 02:27:08;;;;;;;6.70;3.30;;;15.20;88.20;;;;;;5058138;28;20032;-66
2023/06/15 02:29:34;;;;;;;6.00;3.13;;;15.10;88.70;;;;;;5061779;28;20295;-66
2023/06/15 02:32:00;;;;;;;4.55;2.65;;;15.20;89.10;;;;;;5090199;28;20111;-68
2023/06/15 02:34:26;;;;;;;5.30;2.95;;;15.20;89.10;;;;;;5058845;28;20143;-66
2023/06/15 02:36:53;;;;;;;11.45;2.67;;;15.10;89.20;;;;;;5058619;28;20055;-66
2023/06/15 02:39:20;;;;;;;6.00;2.88;;;15.10;89.60;;;;;;5059644;28;20028;-66
2023/06/15 02:41:46;;;;;;;4.25;2.88;;;15.10;89.90;;;;;;5060912;28;20024;-67
2023/06/15 02:44:14;;;;;;;3.70;2.60;;;15.10;90.00;;;;;;5059713;28;20067;-65
2023/06/15 02:46:41;;;;;;;5.93;3.05;;;15.20;90.10;;;;;;5056025;28;20055;-66
2023/06/15 02:49:08;;;;;;;4.38;2.78;;;15.10;90.20;;;;;;5057608;28;20035;-66
2023/06/15 02:51:37;;;;;;;3.92;3.10;;;15.20;90.30;;;;;;5060782;28;20063;-66
2023/06/15 02:54:05;;;;;;;3.13;2.25;;;15.20;90.30;;;;;;5062494;28;20025;-66
2023/06/15 02:56:36;;;;;;;3.42;2.67;;;15.20;90.40;;;;;;5061267;28;20039;-65
2023/06/15 02:59:02;;;;;;;4.65;2.70;;;15.20;90.30;;;;;;5060524;28;20036;-66
2023/06/15 03:01:52;;;;;;;3.97;2.50;;;15.30;90.40;;;;;;5059347;28;20056;-67
2023/06/15 03:04:23;;;;;;;3.97;2.75;;;15.30;90.50;;;;;;5096147;28;20744;-67
2023/06/15 03:06:56;;;;;;;3.92;2.70;;;15.40;90.40;;;;;;5062441;28;20793;-67
2023/06/15 03:09:31;;;;;;;3.55;2.65;;;15.40;90.30;;;;;;5061076;28;20021;-67
2023/06/15 03:11:56;;;;;;;4.20;2.97;;;15.50;90.40;;;;;;5060371;28;20029;-66
2023/06/15 03:14:32;;;;;;;5.70;2.70;;;15.50;90.50;;;;;;5060113;28;20036;-67
2023/06/15 03:16:58;;;;;;;9.52;2.95;;;15.50;90.40;;;;;;5062011;28;20066;-67
2023/06/15 03:19:24;;;;;;;4.78;2.83;;;15.50;90.40;;;;;;5058489;28;20119;-67
2023/06/15 03:21:49;;;;;;;4.88;2.80;;;15.60;90.30;;;;;;5059818;28;20033;-67
2023/06/15 03:24:17;;;;;;;4.68;3.08;;;15.60;90.30;;;;;;5059907;28;20032;-66
2023/06/15 03:26:47;;;;;;;5.40;2.78;;;15.60;90.30;;;;;;5059306;28;20707;-67
2023/06/15 03:29:13;;;;;;;3.95;2.60;;;15.60;90.30;;;;;;5057974;28;20648;-67
2023/06/15 03:31:44;;;;;;;3.35;2.88;;;15.60;90.30;;;;;;5059430;28;20024;-67
2023/06/15 03:34:10;;;;;;;6.18;2.20;;;15.60;90.20;;;;;;5055812;28;20120;-67
2023/06/15 03:36:36;;;;;;;4.10;2.63;;;15.60;90.30;;;;;;5056819;28;20052;-67
2023/06/15 03:39:03;;;;;;;5.32;3.15;;;15.60;90.40;;;;;;5060952;28;20563;-66
2023/06/15 03:41:33;;;;;;;4.97;2.63;;;15.60;90.50;;;;;;5057280;28;20914;-66
2023/06/15 03:44:00;;;;;;;4.57;2.78;;;15.70;90.60;;;;;;5055896;28;20534;-67
2023/06/15 03:46:27;;;;;;;4.30;2.72;;;15.70;90.50;;;;;;5059507;28;20042;-67
2023/06/15 03:48:53;;;;;;;3.33;2.78;;;15.70;90.50;;;;;;5059764;28;20021;-67
2023/06/15 03:51:19;;;;;;;3.63;2.78;;;15.70;90.50;;;;;;5057950;28;20029;-67
2023/06/15 03:53:45;;;;;;;5.65;2.50;;;15.70;90.60;;;;;;5059002;28;20573;-67
2023/06/15 03:56:11;;;;;;;2.88;2.50;;;15.70;90.60;;;;;;5059059;28;20032;-67
2023/06/15 03:58:38;;;;;;;5.38;2.65;;;15.70;90.70;;;;;;5059376;28;20058;-66
2023/06/15 04:01:07;;;;;;;3.92;2.70;;;15.70;90.90;;;;;;5059685;28;20064;-66
2023/06/15 04:03:36;;;;;;;4.03;2.67;;;15.80;91.00;;;;;;5059954;28;20037;-67
2023/06/15 04:06:06;;;;;;;4.25;2.65;;;15.80;90.90;;;;;;5058516;28;20056;-67
2023/06/15 04:08:33;;;;;;;5.30;2.72;;;15.90;90.80;;;;;;5058976;28;20147;-67
2023/06/15 04:10:59;;;;;;;3.70;2.55;;;15.90;90.70;;;;;;5059528;28;20028;-67
2023/06/15 04:13:25;;;;;;;4.75;3.28;;;16.00;90.70;;;;;;5058985;28;20101;-67
2023/06/15 04:15:55;;;;;;;3.60;2.88;;;16.10;90.70;;;;;;5062475;28;20029;-66
2023/06/15 04:18:22;;;;;;;3.63;2.55;;;16.20;90.70;;;;;;5057814;28;20139;-67
2023/06/15 04:20:48;;;;;;;4.13;2.78;;;16.20;90.60;;;;;;5062098;28;20123;-66
2023/06/15 04:23:14;;;;;;;4.05;2.88;;;16.30;90.50;;;;;;5060803;28;20127;-67
2023/06/15 04:25:41;;;;;;;5.40;2.70;;;16.40;90.30;;;;;;5061856;28;20426;-67
2023/06/15 04:28:10;;;;;;;3.45;2.67;;;16.50;90.20;;;;;;5059621;28;20052;-67
2023/06/15 04:30:45;;;;;;;4.72;2.63;;;16.50;90.00;;;;;;5059085;28;20031;-66
2023/06/15 04:33:13;;;;;;;3.72;2.75;;;16.60;90.10;;;;;;5061711;28;20574;-66
2023/06/15 04:35:45;;;;;;;4.35;2.63;;;16.60;90.10;;;;;;5058137;28;20033;-66
2023/06/15 04:38:14;;;;;;;6.85;3.08;;;16.60;89.90;;;;;;5061438;28;20024;-67
2023/06/15 04:40:45;;;;;;;4.80;2.88;;;16.70;90.00;;;;;;5061928;28;20495;-66
2023/06/15 04:43:12;;;;;;;4.28;2.78;;;16.70;90.00;;;;;;5061875;28;20517;-67
2023/06/15 04:45:38;;;;;;;5.20;2.78;;;16.80;89.60;;;;;;5061639;28;20033;-67
2023/06/15 04:48:05;;;;;;;4.97;2.85;;;16.80;89.30;;;;;;5059347;28;20053;-66
2023/06/15 04:50:32;;;;;;;7.38;2.85;;;16.90;89.10;;;;;;5061882;28;20028;-66
2023/06/15 04:52:58;;;;;;;4.82;2.90;;;16.90;89.90;;;;;;5061755;28;20086;-67
2023/06/15 04:55:25;;;;;;;7.18;2.60;;;16.90;89.30;;;;;;5061263;28;20024;-66
2023/06/15 04:57:50;;;;;;;4.80;2.83;;;16.90;89.50;;;;;;5059841;28;20047;-67
2023/06/15 05:00:17;;;;;;;5.13;3.17;;;17.00;89.40;;;;;;5060413;28;20488;-67
2023/06/15 05:02:48;;;;;;;3.90;3.13;;;17.00;89.50;;;;;;5059438;28;20029;-66
2023/06/15 05:05:15;;;;;;;5.43;3.00;;;17.00;89.80;;;;;;5058968;28;20040;-67
2023/06/15 05:07:42;;;;;;;3.92;2.78;;;17.10;89.90;;;;;;5061074;28;20036;-67
2023/06/15 05:10:08;;;;;;;6.20;3.20;;;17.00;90.00;;;;;;5059473;28;20680;-67
2023/06/15 05:12:35;;;;;;;6.70;2.83;;;17.00;90.10;;;;;;5061181;28;20097;-67
2023/06/15 05:15:01;;;;;;;4.35;3.00;;;17.00;90.30;;;;;;5061108;28;20028;-67
2023/06/15 05:17:27;;;;;;;3.65;2.72;;;17.10;90.20;;;;;;5060964;28;20678;-66
2023/06/15 05:19:53;;;;;;;3.38;2.67;;;17.10;90.30;;;;;;5055452;28;20745;-67
2023/06/15 05:22:19;;;;;;;3.60;3.00;;;17.10;90.30;;;;;;5058940;28;20122;-67
2023/06/15 05:24:45;;;;;;;5.18;2.97;;;17.10;90.00;;;;;;5061351;28;20070;-67
2023/06/15 05:27:11;;;;;;;4.20;3.05;;;17.20;90.20;;;;;;5060367;28;20071;-67
2023/06/15 05:29:39;;;;;;;3.97;3.00;;;17.20;90.50;;;;;;5061146;28;20035;-67
2023/06/15 05:32:08;;;;;;;5.75;2.58;;;17.30;90.00;;;;;;5060515;28;20033;-67
2023/06/15 05:34:35;;;;;;;4.05;3.00;;;17.30;89.70;;;;;;5090297;28;20021;-67
2023/06/15 05:37:02;;;;;;;5.28;3.10;;;17.40;89.60;;;;;;5060630;28;20039;-67
2023/06/15 05:39:32;;;;;;;4.45;3.08;;;17.50;89.40;;;;;;5057612;28;20563;-68
2023/06/15 05:41:58;;;;;;;6.38;2.90;;;17.50;88.90;;;;;;5057465;28;20074;-67
2023/06/15 05:44:25;;;;;;;3.85;2.90;;;17.60;88.60;;;;;;5056298;28;20036;-67
2023/06/15 05:46:53;;;;;;;3.72;2.60;;;17.70;88.60;;;;;;5059352;28;20590;-66
2023/06/15 05:49:19;;;;;;;6.57;2.70;;;17.80;88.10;;;;;;5058663;28;20044;-67
2023/06/15 05:51:45;;;;;;;3.97;2.90;;;17.90;87.70;;;;;;5058946;28;20598;-67
2023/06/15 05:54:11;;;;;;;5.07;2.60;;;17.90;87.00;;;;;;5057445;28;20115;-67
2023/06/15 05:56:37;;;;;;;3.55;2.90;;;18.10;87.30;;;;;;5061097;28;20035;-67
2023/06/15 05:59:03;;;;;;;4.78;2.70;;;18.20;85.80;;;;;;5059151;28;20032;-66
2023/06/15 06:01:29;;;;;;;4.10;2.42;;;18.20;85.10;;;;;;5059444;28;20028;-68
2023/06/15 06:03:55;;;;;;;5.00;2.75;;;18.40;84.40;;;;;;5055986;28;20059;-66
2023/06/15 06:06:23;;;;;;;5.00;2.95;;;18.40;83.70;;;;;;5058939;28;20035;-67
2023/06/15 06:08:50;;;;;;;5.15;2.75;;;18.50;83.90;;;;;;5058152;28;20024;-67
2023/06/15 06:11:16;;;;;;;5.72;2.75;;;18.70;83.00;;;;;;5061324;28;20492;-67
2023/06/15 06:13:46;;;;;;;4.22;2.60;;;18.80;83.40;;;;;;5043736;28;20020;-67
2023/06/15 06:16:12;;;;;;;6.78;2.58;;;18.90;82.40;;;;;;5058933;28;20036;-66
2023/06/15 06:18:38;;;;;;;4.43;2.47;;;19.10;81.30;;;;;;5059609;28;20056;-67
2023/06/15 06:21:05;;;;;;;3.85;2.58;;;19.20;80.40;;;;;;5056246;28;20507;-66
2023/06/15 06:23:32;;;;;;;5.18;2.70;;;19.40;79.10;;;;;;5059166;28;20038;-66
2023/06/15 06:25:58;;;;;;;4.05;2.60;;;19.50;77.80;;;;;;5059462;28;20041;-67
2023/06/15 06:28:24;;;;;;;5.40;2.30;;;19.60;77.70;;;;;;5060214;28;20101;-67
2023/06/15 06:30:50;;;;;;;5.15;2.28;;;19.70;78.00;;;;;;5059099;28;20458;-66
2023/06/15 06:33:16;;;;;;;8.55;2.70;;;19.80;77.10;;;;;;5058454;28;20389;-67
2023/06/15 06:35:41;;;;;;;4.32;2.40;;;19.80;76.10;;;;;;5058686;28;20127;-67
2023/06/15 06:38:07;;;;;;;3.58;2.20;;;19.90;76.20;;;;;;5049703;28;20079;-66
2023/06/15 06:40:33;;;;;;;8.70;2.63;;;19.90;76.60;;;;;;5056555;28;20035;-67
2023/06/15 06:42:59;;;;;;;5.50;2.65;;;19.90;74.50;;;;;;5060133;28;20055;-67
2023/06/15 06:45:24;;;;;;;5.50;2.25;;;19.90;74.80;;;;;;5060453;28;20123;-67
2023/06/15 06:47:50;;;;;;;5.35;2.55;;;19.90;76.10;;;;;;5058706;28;20032;-67
2023/06/15 06:50:16;;;;;;;7.28;2.97;;;19.90;75.50;;;;;;5058201;28;20085;-66
2023/06/15 06:52:45;;;;;;;2.88;2.20;;;19.90;75.80;;;;;;5060254;28;20170;-67
2023/06/15 06:55:10;;;;;;;4.63;2.75;;;19.90;75.60;;;;;;5060522;28;20853;-66
2023/06/15 06:57:36;;;;;;;2.90;2.38;;;19.90;76.00;;;;;;5060061;28;20047;-67
2023/06/15 07:00:03;;;;;;;4.78;2.40;;;20.00;76.60;;;;;;5060174;28;20045;-67
2023/06/15 07:02:29;;;;;;;3.85;2.63;;;20.10;74.50;;;;;;5057473;28;20039;-67
2023/06/15 07:04:55;;;;;;;3.88;2.25;;;20.20;75.40;;;;;;5055129;28;20048;-67
2023/06/15 07:07:20;;;;;;;5.38;2.50;;;20.30;74.30;;;;;;5058411;28;20131;-67
2023/06/15 07:09:46;;;;;;;5.20;2.22;;;20.40;74.20;;;;;;5057212;28;20052;-67
2023/06/15 07:12:12;;;;;;;3.25;2.15;;;20.40;72.70;;;;;;5057112;28;20404;-64
2023/06/15 07:14:37;;;;;;;3.22;2.15;;;20.50;72.20;;;;;;5056551;28;20029;-65
2023/06/15 07:17:03;;;;;;;3.17;2.47;;;20.50;72.60;;;;;;5060266;28;20086;-66
2023/06/15 07:19:29;;;;;;;3.30;2.35;;;20.60;72.60;;;;;;5059886;28;20040;-66
2023/06/15 07:21:55;;;;;;;4.13;2.30;;;20.80;71.80;;;;;;5060303;28;20036;-67
2023/06/15 07:24:21;;;;;;;3.42;2.40;;;20.90;71.00;;;;;;5059087;28;20087;-67
2023/06/15 07:26:47;;;;;;;4.05;2.33;;;21.00;70.90;;;;;;5060620;28;20461;-67
2023/06/15 07:29:12;;;;;;;6.32;2.22;;;21.10;70.50;;;;;;5059425;28;20110;-67
2023/06/15 07:31:38;;;;;;;2.83;2.20;;;21.30;68.30;;;;;;5059936;28;20033;-68
2023/06/15 07:34:04;;;;;;;3.25;2.47;;;21.40;68.50;;;;;;5060141;28;20032;-67
2023/06/15 07:36:30;;;;;;;5.15;2.58;;;21.50;67.90;;;;;;5059563;28;20024;-67
2023/06/15 07:38:56;;;;;;;3.10;2.10;;;21.70;67.30;;;;;;5060744;28;20570;-67
2023/06/15 07:41:22;;;;;;;2.65;2.25;;;21.80;65.30;;;;;;5059923;28;20036;-67
2023/06/15 07:43:48;;;;;;;5.93;2.22;;;21.90;65.30;;;;;;5064413;28;20044;-68
2023/06/15 07:46:13;;;;;;;2.58;1.90;;;22.00;64.10;;;;;;5063812;28;20033;-67
2023/06/15 07:48:39;;;;;;;4.10;2.20;;;22.10;63.60;;;;;;5060187;28;20025;-67
2023/06/15 07:51:05;;;;;;;2.85;2.10;;;22.20;61.80;;;;;;5065628;28;20060;-67
2023/06/15 07:53:31;;;;;;;5.05;2.35;;;22.30;62.60;;;;;;5065514;28;20028;-67
2023/06/15 07:55:56;;;;;;;7.05;2.30;;;22.50;62.60;;;;;;5063555;28;20039;-67
2023/06/15 07:58:22;;;;;;;2.80;2.10;;;22.60;62.80;;;;;;5061026;28;20045;-67
2023/06/15 08:00:48;;;;;;;4.07;1.92;;;22.70;61.00;;;;;;5065723;28;20039;-67
2023/06/15 08:03:14;;;;;;;4.45;2.53;;;22.90;58.70;;;;;;5065590;28;20127;-68
2023/06/15 08:05:39;;;;;;;4.47;2.30;;;23.00;57.00;;;;;;5063644;28;20075;-68
2023/06/15 08:08:05;;;;;;;3.72;2.38;;;23.00;57.30;;;;;;5061040;28;20044;-67
2023/06/15 08:10:32;;;;;;;4.72;2.03;;;23.00;57.30;;;;;;5064876;28;20028;-67
2023/06/15 08:12:58;;;;;;;5.90;2.70;;;23.10;56.50;;;;;;5065304;28;20020;-67
2023/06/15 08:15:23;;;;;;;2.30;2.10;;;23.10;56.20;;;;;;5064768;28;20032;-67
2023/06/15 08:17:49;;;;;;;6.05;2.22;;;23.20;55.40;;;;;;5064832;28;20666;-67
2023/06/15 08:20:15;;;;;;;8.93;2.38;;;23.20;56.20;;;;;;5065141;28;20056;-67
2023/06/15 08:22:42;;;;;;;6.18;2.25;;;23.20;56.60;;;;;;5063998;28;20115;-67
2023/06/15 08:25:09;;;;;;;2.47;2.03;;;23.30;56.30;;;;;;5065262;28;20058;-67
2023/06/15 08:27:35;;;;;;;4.28;2.30;;;23.30;56.40;;;;;;5048562;28;20036;-67
2023/06/15 08:30:01;;;;;;;3.90;2.10;;;23.40;57.50;;;;;;5061172;28;20178;-67
2023/06/15 08:32:27;;;;;;;3.75;2.15;;;23.60;55.90;;;;;;5064649;28;20043;-66
2023/06/15 08:34:53;;;;;;;7.45;2.00;;;23.70;56.20;;;;;;5063965;28;20816;-67
2023/06/15 08:37:18;;;;;;;5.10;2.30;;;24.00;53.30;;;;;;5062695;28;20139;-67
2023/06/15 08:39:44;;;;;;;4.90;2.22;;;24.10;52.20;;;;;;5064721;28;20032;-67
2023/06/15 08:42:10;;;;;;;4.28;2.13;;;24.10;52.20;;;;;;5064411;28;20028;-67
2023/06/15 08:44:37;;;;;;;2.78;2.15;;;24.20;52.00;;;;;;5052234;28;20097;-66
2023/06/15 08:47:03;;;;;;;2.78;2.30;;;24.30;50.90;;;;;;5063547;28;20871;-67
2023/06/15 08:49:30;;;;;;;2.63;2.15;;;24.50;49.40;;;;;;5061422;28;20024;-67
2023/06/15 08:51:58;;;;;;;4.82;2.15;;;24.60;49.10;;;;;;5060902;28;20039;-67
2023/06/15 08:54:28;;;;;;;4.07;2.50;;;24.50;48.20;;;;;;5059488;28;20028;-67
2023/06/15 08:56:55;;;;;;;6.97;2.33;;;24.60;48.70;;;;;;5063233;28;20476;-68
2023/06/15 08:59:24;;;;;;;2.80;2.25;;;24.70;49.10;;;;;;5062351;28;20601;-69
2023/06/15 09:01:53;;;;;;;6.45;2.33;;;24.80;48.30;;;;;;5059189;28;20107;-67
2023/06/15 09:04:19;;;;;;;3.60;2.03;;;24.80;48.00;;;;;;5063057;28;20487;-67
2023/06/15 09:06:45;;;;;;;3.35;2.25;;;24.80;48.30;;;;;;5063096;28;20038;-67
2023/06/15 09:09:12;;;;;;;6.32;2.33;;;24.90;47.90;;;;;;5048834;28;20036;-67
2023/06/15 09:11:41;;;;;;;6.40;3.17;;;24.90;47.80;;;;;;5060153;28;20028;-67
2023/06/15 09:14:09;;;;;;;3.10;2.40;;;24.80;49.00;;;;;;5062895;28;20033;-66
2023/06/15 09:16:34;;;;;;;3.85;2.28;;;24.80;49.00;;;;;;5062100;28;20067;-67
2023/06/15 09:19:00;;;;;;;3.90;2.20;;;24.80;47.90;;;;;;5062782;28;20335;-68
2023/06/15 09:21:28;;;;;;;7.10;2.35;;;24.70;49.50;;;;;;5063079;28;20499;-67
2023/06/15 09:24:07;;;;;;;3.65;2.42;;;24.70;50.10;;;;;;5062591;28;20040;-66
2023/06/15 09:26:32;;;;;;;5.00;2.38;;;24.80;50.00;;;;;;5062414;28;20035;-67
2023/06/15 09:28:59;;;;;;;4.22;2.40;;;24.70;49.90;;;;;;5060183;28;20040;-65
2023/06/15 09:31:29;;;;;;;3.95;2.60;;;24.80;50.20;;;;;;5062021;28;20035;-66
2023/06/15 09:34:04;;;;;;;6.90;2.40;;;24.80;50.10;;;;;;5062952;28;20029;-66
2023/06/15 09:36:41;;;;;;;;;;;24.90;49.30;;;;;;5063683;28;20035;-67
2023/06/15 09:39:11;;;;;;;3.38;2.30;;;24.90;50.10;;;;;;5058480;28;19912;-65
2023/06/15 09:41:58;;;;;;;5.95;2.50;;;25.10;49.90;;;;;;5057742;28;20028;-66
2023/06/15 09:44:25;;;;;;;5.68;2.58;;;25.20;48.70;;;;;;5062580;28;20044;-66
2023/06/15 09:46:58;;;;;;;5.13;2.40;;;25.20;48.70;;;;;;5055965;28;20385;-67
2023/06/15 09:49:26;;;;;;;4.50;2.20;;;25.20;49.20;;;;;;5059783;28;20476;-67
2023/06/15 09:51:56;;;;;;;4.65;2.67;;;25.10;48.60;;;;;;5059505;28;20117;-66
2023/06/15 09:54:23;;;;;;;4.03;2.35;;;25.10;49.40;;;;;;5058368;28;20116;-66
2023/06/15 09:56:51;;;;;;;4.00;2.50;;;25.10;49.30;;;;;;5058664;28;20033;-67
2023/06/15 09:59:18;;;;;;;7.22;2.47;;;25.30;49.70;;;;;;5060504;28;20047;-67
2023/06/15 10:01:47;;;;;;;7.50;2.85;;;25.20;48.70;;;;;;5060831;28;20118;-67
2023/06/15 10:04:15;;;;;;;6.47;2.63;;;25.00;47.70;;;;;;5060902;28;20048;-67
2023/06/15 10:06:43;;;;;;;4.43;2.58;;;25.00;48.20;;;;;;5063428;28;20028;-67
2023/06/15 10:09:11;;;;;;;9.05;2.80;;;25.20;47.70;;;;;;5063001;28;20056;-67
2023/06/15 10:11:41;;;;;;;5.97;2.75;;;25.40;46.70;;;;;;5058987;28;20037;-67
2023/06/15 10:14:18;;;;;;;7.13;3.67;;;25.50;46.20;;;;;;5055621;28;20565;-67
2023/06/15 10:16:48;;;;;;;8.00;2.60;;;25.70;47.30;;;;;;5056573;28;20074;-67
2023/06/15 10:19:15;;;;;;;4.45;2.13;;;25.80;46.10;;;;;;5059382;28;20081;-67
2023/06/15 10:21:44;;;;;;;5.40;2.17;;;25.90;46.50;;;;;;5060649;28;20097;-67
2023/06/15 10:24:16;;;;;;;4.82;2.70;;;26.10;46.40;;;;;;5061746;28;20070;-66
2023/06/15 10:26:43;;;;;;;4.63;2.67;;;26.30;46.00;;;;;;5061975;28;20029;-66
2023/06/15 10:29:38;;;;;;;3.25;2.78;;;26.40;45.50;;;;;;5050865;28;20036;-66
2023/06/15 10:32:10;;;;;;;7.10;2.85;;;26.40;46.60;;;;;;5060264;28;20045;-66
2023/06/15 10:34:48;;;;;;;3.10;2.30;;;26.50;46.70;;;;;;5056291;28;20346;-66
2023/06/15 10:37:24;;;;;;;5.57;2.85;;;26.50;47.30;;;;;;5058730;28;20048;-66
2023/06/15 10:39:51;;;;;;;4.05;2.63;;;26.50;47.70;;;;;;5057099;28;20032;-66
2023/06/15 10:42:17;;;;;;;3.03;2.63;;;26.40;48.10;;;;;;5062185;28;20086;-66
2023/06/15 10:44:43;;;;;;;9.05;2.88;;;26.30;47.60;;;;;;5062898;28;20029;-67
2023/06/15 10:47:14;;;;;;;8.32;2.72;;;26.20;47.60;;;;;;5061635;28;20146;-67
2023/06/15 10:49:53;;;;;;;3.88;2.60;;;26.00;47.30;;;;;;5058291;28;20047;-68
2023/06/15 10:52:19;;;;;;;3.47;2.80;;;25.80;47.70;;;;;;5059750;28;20055;-67
2023/06/15 10:54:46;;;;;;;3.35;2.47;;;25.80;47.50;;;;;;5062176;28;20035;-67
2023/06/15 10:57:19;;;;;;;2.60;2.40;;;25.70;49.20;;;;;;5059830;28;20508;-69
2023/06/15 10:59:51;;;;;;;10.00;3.42;;;25.60;49.80;;;;;;5058884;28;20492;-67
2023/06/15 11:02:29;;;;;;;8.80;2.70;;;25.60;50.30;;;;;;5057177;28;20485;-67
2023/06/15 11:05:08;;;;;;;4.95;2.72;;;25.50;49.50;;;;;;5056656;28;20131;-67
2023/06/15 11:07:39;;;;;;;7.63;3.45;;;25.50;50.20;;;;;;5053681;28;20182;-67
2023/06/15 11:10:17;;;;;;;5.95;2.83;;;25.40;50.80;;;;;;5062331;28;20123;-67
2023/06/15 11:12:44;;;;;;;4.55;2.53;;;25.30;50.80;;;;;;5062381;28;20048;-67
2023/06/15 11:15:13;;;;;;;4.28;2.53;;;25.20;50.70;;;;;;5052577;28;20036;-67
2023/06/15 11:17:52;;;;;;;4.75;2.60;;;25.20;51.60;;;;;;5056251;28;20036;-63
2023/06/15 11:20:54;;;;;;;3.75;2.92;;;25.10;50.80;;;;;;5060168;28;20094;-63
2023/06/15 11:23:23;;;;;;;7.30;2.60;;;25.10;51.00;;;;;;5062304;28;20904;-65
2023/06/15 11:25:51;;;;;;;3.80;2.83;;;25.00;51.10;;;;;;5065399;28;20060;-64
2023/06/15 11:28:24;;;;;;;6.00;2.58;;;24.90;51.20;;;;;;5065477;28;20411;-64
2023/06/15 11:30:53;;;;;;;5.10;2.38;;;24.80;51.60;;;;;;5065845;28;20103;-61
2023/06/15 11:33:37;;;;;;;4.78;2.63;;;24.80;50.50;;;;;;5066919;28;20060;-64
2023/06/15 11:36:08;;;;;;;4.95;2.47;;;24.80;51.40;;;;;;5066888;28;20047;-62
2023/06/15 11:38:35;;;;;;;4.30;2.42;;;24.80;51.30;;;;;;5059959;28;20070;-63
2023/06/15 11:41:03;;;;;;;5.93;2.42;;;24.70;50.50;;;;;;5055849;28;20052;-64
2023/06/15 11:43:40;;;;;;;3.95;2.30;;;24.70;50.40;;;;;;5066237;28;20474;-62
2023/06/15 11:46:13;;;;;;;5.03;2.47;;;24.70;51.30;;;;;;5062308;28;20051;-62
2023/06/15 11:48:40;;;;;;;4.25;2.45;;;24.70;51.10;;;;;;5063158;28;20817;-64
2023/06/15 11:51:10;;;;;;;6.05;2.65;;;24.70;51.80;;;;;;5059030;28;20075;-62
2023/06/15 11:53:38;;;;;;;5.65;2.70;;;24.90;51.50;;;;;;5051901;28;20043;-62
2023/06/15 11:56:13;;;;;;;5.20;2.58;;;24.90;51.50;;;;;;5056843;28;20032;-64
2023/06/15 11:58:43;;;;;;;4.20;2.70;;;24.90;51.00;;;;;;5053404;28;20085;-64
2023/06/15 12:01:12;;;;;;;5.43;3.17;;;24.90;51.60;;;;;;5060739;28;20041;-62
2023/06/15 12:03:42;;;;;;;5.38;3.25;;;24.80;51.80;;;;;;5063347;28;20062;-61
2023/06/15 12:06:08;;;;;;;4.55;2.95;;;24.70;52.00;;;;;;5062258;28;20044;-63
2023/06/15 12:08:34;;;;;;;4.03;3.30;;;24.80;51.90;;;;;;5063890;28;20032;-64
2023/06/15 12:11:00;;;;;;;4.38;2.83;;;24.80;52.40;;;;;;5065000;28;20447;-64
2023/06/15 12:13:26;;;;;;;4.72;2.88;;;24.80;52.00;;;;;;5066734;28;20034;-62
2023/06/15 12:15:53;;;;;;;5.18;2.60;;;24.80;52.40;;;;;;5068194;28;20037;-62
2023/06/15 12:18:19;;;;;;;5.63;2.70;;;24.80;51.60;;;;;;5069162;28;20293;-62
2023/06/15 12:20:46;;;;;;;7.30;2.42;;;24.80;51.00;;;;;;5069047;28;20028;-62
2023/06/15 12:23:28;;;;;;;6.60;2.63;;;24.80;50.30;;;;;;5066245;28;20031;-62
2023/06/15 12:25:56;;;;;;;5.78;2.35;;;24.80;50.20;;;;;;5062205;28;20051;-62
2023/06/15 12:28:22;;;;;;;3.15;2.42;;;24.80;51.30;;;;;;5063779;28;20548;-63
2023/06/15 12:30:49;;;;;;;4.95;2.47;;;24.90;49.70;;;;;;5063182;28;20040;-62
2023/06/15 12:33:31;;;;;;;4.90;2.20;;;25.00;49.70;;;;;;5056038;28;20047;-61
2023/06/15 12:35:59;;;;;;;3.65;2.30;;;24.80;49.40;;;;;;5058652;28;20040;-61
2023/06/15 12:38:27;;;;;;;6.00;2.80;;;24.80;47.80;;;;;;5060423;28;20025;-61
2023/06/15 12:40:53;;;;;;;3.40;2.03;;;24.70;46.20;;;;;;5060677;28;20571;-61
2023/06/15 12:43:20;;;;;;;4.65;2.67;;;24.70;47.30;;;;;;5059308;28;20043;-61
2023/06/15 12:45:46;;;;;;;4.28;2.30;;;24.70;48.50;;;;;;5058791;28;20481;-62
2023/06/15 12:48:12;;;;;;;2.97;2.30;;;24.70;47.70;;;;;;5054383;28;20025;-63
2023/06/15 12:50:38;;;;;;;4.22;1.83;;;24.70;48.20;;;;;;5056467;28;20040;-62
2023/06/15 12:53:05;;;;;;;3.50;2.15;;;24.70;49.00;;;;;;5055306;28;20028;-62